sensor_id;sensor_type;location;lat;lon;timestamp;temperature;humidity
48206;DHT22;33995;48.202;16.260;2023-12-20T00:01:07;1.00;99.90
48206;DHT22;33995;48.202;16.260;2023-12-20T00:03:35;1.00;99.90
48206;DHT22;33995;48.202;16.260;2023-12-20T00:06:09;1.00;99.90
48206;DHT22;33995;48.202;16.260;2023-12-20T00:08:36;0.90;99.90
48206;DHT22;33995;48.202;16.260;2023-12-20T00:11:03;0.90;99.90
48206;DHT22;33995;48.202;16.260;2023-12-20T00:13:30;1.00;99.90
48206;DHT22;33995;48.202;16.260;2023-12-20T00:15:57;0.90;99.90
48206;DHT22;33995;48.202;16.260;2023-12-20T00:18:24;0.90;99.90
48206;DHT22;33995;48.202;16.260;2023-12-20T00:20:51;0.90;99.90
48206;DHT22;33995;48.202;16.260;2023-12-20T00:23:18;0.90;99.90
48206;DHT22;33995;48.202;16.260;2023-12-20T00:25:45;0.80;99.90
48206;DHT22;33995;48.202;16.260;2023-12-20T00:28:12;0.70;99.90
48206;DHT22;33995;48.202;16.260;2023-12-20T00:30:39;0.80;99.90
48206;DHT22;33995;48.202;16.260;2023-12-20T00:33:07;0.80;99.90
48206;DHT22;33995;48.202;16.260;2023-12-20T00:35:36;0.70;99.90
48206;DHT22;33995;48.202;16.260;2023-12-20T00:38:03;0.80;99.90
48206;DHT22;33995;48.202;16.260;2023-12-20T00:40:32;0.80;99.90
48206;DHT22;33995;48.202;16.260;2023-12-20T00:42:59;0.70;99.90
48206;DHT22;33995;48.202;16.260;2023-12-20T00:45:26;0.70;99.90
48206;DHT22;33995;48.202;16.260;2023-12-20T00:47:53;0.70;99.90
48206;DHT22;33995;48.202;16.260;2023-12-20T00:50:22;0.80;99.90
48206;DHT22;33995;48.202;16.260;2023-12-20T00:52:51;0.80;99.90
48206;DHT22;33995;48.202;16.260;2023-12-20T00:55:19;0.80;99.90
48206;DHT22;33995;48.202;16.260;2023-12-20T00:57:46;0.80;99.90
48206;DHT22;33995;48.202;16.260;2023-12-20T01:00:14;0.90;99.90
48206;DHT22;33995;48.202;16.260;2023-12-20T01:02:41;0.80;99.90
48206;DHT22;33995;48.202;16.260;2023-12-20T01:05:08;0.80;99.90
48206;DHT22;33995;48.202;16.260;2023-12-20T01:07:36;0.80;99.90
48206;DHT22;33995;48.202;16.260;2023-12-20T01:10:03;0.80;99.90
48206;DHT22;33995;48.202;16.260;2023-12-20T01:12:30;0.80;99.90
48206;DHT22;33995;48.202;16.260;2023-12-20T01:14:58;0.60;99.90
48206;DHT22;33995;48.202;16.260;2023-12-20T01:17:25;0.70;99.90
48206;DHT22;33995;48.202;16.260;2023-12-20T01:19:53;0.80;99.90
48206;DHT22;33995;48.202;16.260;2023-12-20T01:22:21;0.90;99.90
48206;DHT22;33995;48.202;16.260;2023-12-20T01:24:48;0.80;99.90
48206;DHT22;33995;48.202;16.260;2023-12-20T01:27:16;0.80;99.90
48206;DHT22;33995;48.202;16.260;2023-12-20T01:29:44;0.70;99.90
48206;DHT22;33995;48.202;16.260;2023-12-20T01:32:12;0.70;99.90
48206;DHT22;33995;48.202;16.260;2023-12-20T01:34:39;0.80;99.90
48206;DHT22;33995;48.202;16.260;2023-12-20T01:37:07;0.80;99.90
48206;DHT22;33995;48.202;16.260;2023-12-20T01:39:35;0.80;99.90
48206;DHT22;33995;48.202;16.260;2023-12-20T01:42:02;0.90;99.90
48206;DHT22;33995;48.202;16.260;2023-12-20T01:44:30;0.90;99.90
48206;DHT22;33995;48.202;16.260;2023-12-20T01:46:58;0.80;99.90
48206;DHT22;33995;48.202;16.260;2023-12-20T01:49:25;0.90;99.90
48206;DHT22;33995;48.202;16.260;2023-12-20T01:51:54;0.90;99.90
48206;DHT22;33995;48.202;16.260;2023-12-20T01:54:22;0.90;99.90
48206;DHT22;33995;48.202;16.260;2023-12-20T01:56:50;0.80;99.90
48206;DHT22;33995;48.202;16.260;2023-12-20T01:59:18;0.90;99.90
48206;DHT22;33995;48.202;16.260;2023-12-20T02:01:46;0.80;99.90
48206;DHT22;33995;48.202;16.260;2023-12-20T02:04:14;0.80;99.90
48206;DHT22;33995;48.202;16.260;2023-12-20T02:06:42;0.90;99.90
48206;DHT22;33995;48.202;16.260;2023-12-20T02:09:10;0.90;99.90
48206;DHT22;33995;48.202;16.260;2023-12-20T02:11:38;0.90;99.90
48206;DHT22;33995;48.202;16.260;2023-12-20T02:14:05;0.90;99.90
48206;DHT22;33995;48.202;16.260;2023-12-20T02:16:32;0.90;99.90
48206;DHT22;33995;48.202;16.260;2023-12-20T02:18:59;1.00;99.90
48206;DHT22;33995;48.202;16.260;2023-12-20T02:21:31;1.10;99.90
48206;DHT22;33995;48.202;16.260;2023-12-20T02:23:59;1.60;99.90
48206;DHT22;33995;48.202;16.260;2023-12-20T02:26:26;2.50;99.90
48206;DHT22;33995;48.202;16.260;2023-12-20T02:28:54;2.90;99.90
48206;DHT22;33995;48.202;16.260;2023-12-20T02:31:24;3.70;99.90
48206;DHT22;33995;48.202;16.260;2023-12-20T02:33:51;4.20;99.90
48206;DHT22;33995;48.202;16.260;2023-12-20T02:36:19;4.60;99.90
48206;DHT22;33995;48.202;16.260;2023-12-20T02:38:46;4.90;99.90
48206;DHT22;33995;48.202;16.260;2023-12-20T02:41:14;5.40;99.90
48206;DHT22;33995;48.202;16.260;2023-12-20T02:43:43;5.80;99.90
48206;DHT22;33995;48.202;16.260;2023-12-20T02:46:11;5.80;99.90
48206;DHT22;33995;48.202;16.260;2023-12-20T02:48:38;5.90;99.90
48206;DHT22;33995;48.202;16.260;2023-12-20T02:51:05;6.00;99.90
48206;DHT22;33995;48.202;16.260;2023-12-20T02:53:34;6.20;99.90
48206;DHT22;33995;48.202;16.260;2023-12-20T02:56:01;6.40;99.90
48206;DHT22;33995;48.202;16.260;2023-12-20T02:58:28;6.40;99.90
48206;DHT22;33995;48.202;16.260;2023-12-20T03:00:55;6.50;99.90
48206;DHT22;33995;48.202;16.260;2023-12-20T03:03:23;6.60;99.90
48206;DHT22;33995;48.202;16.260;2023-12-20T03:05:50;6.60;99.90
48206;DHT22;33995;48.202;16.260;2023-12-20T03:08:18;6.70;99.90
48206;DHT22;33995;48.202;16.260;2023-12-20T03:10:46;6.70;99.90
48206;DHT22;33995;48.202;16.260;2023-12-20T03:13:14;6.80;99.90
48206;DHT22;33995;48.202;16.260;2023-12-20T03:15:42;6.90;99.90
48206;DHT22;33995;48.202;16.260;2023-12-20T03:18:10;6.80;99.90
48206;DHT22;33995;48.202;16.260;2023-12-20T03:20:38;6.80;99.90
48206;DHT22;33995;48.202;16.260;2023-12-20T03:23:05;6.80;99.90
48206;DHT22;33995;48.202;16.260;2023-12-20T03:25:33;6.70;99.90
48206;DHT22;33995;48.202;16.260;2023-12-20T03:28:00;6.70;99.90
48206;DHT22;33995;48.202;16.260;2023-12-20T03:30:28;6.80;99.90
48206;DHT22;33995;48.202;16.260;2023-12-20T03:32:56;6.80;99.90
48206;DHT22;33995;48.202;16.260;2023-12-20T03:35:23;6.80;99.90
48206;DHT22;33995;48.202;16.260;2023-12-20T03:37:50;6.80;99.90
48206;DHT22;33995;48.202;16.260;2023-12-20T03:40:18;6.80;99.90
48206;DHT22;33995;48.202;16.260;2023-12-20T03:42:47;6.90;99.90
48206;DHT22;33995;48.202;16.260;2023-12-20T03:45:14;6.90;99.90
48206;DHT22;33995;48.202;16.260;2023-12-20T03:47:41;6.90;99.90
48206;DHT22;33995;48.202;16.260;2023-12-20T03:50:10;6.90;99.90
48206;DHT22;33995;48.202;16.260;2023-12-20T03:52:37;6.90;99.90
48206;DHT22;33995;48.202;16.260;2023-12-20T03:55:06;6.90;99.90
48206;DHT22;33995;48.202;16.260;2023-12-20T03:57:33;7.00;99.90
48206;DHT22;33995;48.202;16.260;2023-12-20T04:00:00;7.00;99.90
48206;DHT22;33995;48.202;16.260;2023-12-20T04:02:38;6.90;99.90
48206;DHT22;33995;48.202;16.260;2023-12-20T04:05:06;6.90;99.90
48206;DHT22;33995;48.202;16.260;2023-12-20T04:07:33;6.90;99.90
48206;DHT22;33995;48.202;16.260;2023-12-20T04:10:01;6.90;99.90
48206;DHT22;33995;48.202;16.260;2023-12-20T04:12:28;6.90;99.90
48206;DHT22;33995;48.202;16.260;2023-12-20T04:14:56;7.00;99.90
48206;DHT22;33995;48.202;16.260;2023-12-20T04:17:23;6.90;99.90
48206;DHT22;33995;48.202;16.260;2023-12-20T04:19:50;6.90;99.90
48206;DHT22;33995;48.202;16.260;2023-12-20T04:22:18;6.90;99.90
48206;DHT22;33995;48.202;16.260;2023-12-20T04:24:45;6.90;99.90
48206;DHT22;33995;48.202;16.260;2023-12-20T04:27:12;6.90;99.90
48206;DHT22;33995;48.202;16.260;2023-12-20T04:29:39;6.90;99.90
48206;DHT22;33995;48.202;16.260;2023-12-20T04:32:06;7.10;99.90
48206;DHT22;33995;48.202;16.260;2023-12-20T04:34:33;7.20;99.90
48206;DHT22;33995;48.202;16.260;2023-12-20T04:37:01;7.30;99.90
48206;DHT22;33995;48.202;16.260;2023-12-20T04:39:28;7.40;99.90
48206;DHT22;33995;48.202;16.260;2023-12-20T04:41:56;7.30;99.90
48206;DHT22;33995;48.202;16.260;2023-12-20T04:44:22;7.40;99.90
48206;DHT22;33995;48.202;16.260;2023-12-20T04:46:50;7.50;99.90
48206;DHT22;33995;48.202;16.260;2023-12-20T04:49:17;7.50;99.90
48206;DHT22;33995;48.202;16.260;2023-12-20T04:51:44;7.50;99.90
48206;DHT22;33995;48.202;16.260;2023-12-20T04:54:11;7.50;99.90
48206;DHT22;33995;48.202;16.260;2023-12-20T04:56:38;7.50;99.90
48206;DHT22;33995;48.202;16.260;2023-12-20T04:59:05;7.40;99.90
48206;DHT22;33995;48.202;16.260;2023-12-20T05:01:32;7.40;99.90
48206;DHT22;33995;48.202;16.260;2023-12-20T05:04:00;7.40;99.90
48206;DHT22;33995;48.202;16.260;2023-12-20T05:06:28;7.40;99.90
48206;DHT22;33995;48.202;16.260;2023-12-20T05:08:55;7.40;99.90
48206;DHT22;33995;48.202;16.260;2023-12-20T05:11:22;7.40;99.90
48206;DHT22;33995;48.202;16.260;2023-12-20T05:13:49;7.50;99.90
48206;DHT22;33995;48.202;16.260;2023-12-20T05:16:18;7.50;99.90
48206;DHT22;33995;48.202;16.260;2023-12-20T05:18:48;7.40;99.90
48206;DHT22;33995;48.202;16.260;2023-12-20T05:21:16;7.40;99.90
48206;DHT22;33995;48.202;16.260;2023-12-20T05:23:43;7.40;99.90
48206;DHT22;33995;48.202;16.260;2023-12-20T05:26:10;7.40;99.90
48206;DHT22;33995;48.202;16.260;2023-12-20T05:28:37;7.50;99.90
48206;DHT22;33995;48.202;16.260;2023-12-20T05:31:04;7.40;99.90
48206;DHT22;33995;48.202;16.260;2023-12-20T05:33:32;7.40;99.90
48206;DHT22;33995;48.202;16.260;2023-12-20T05:36:03;7.50;99.90
48206;DHT22;33995;48.202;16.260;2023-12-20T05:38:30;7.50;99.90
48206;DHT22;33995;48.202;16.260;2023-12-20T05:40:57;7.50;99.90
48206;DHT22;33995;48.202;16.260;2023-12-20T05:43:24;7.60;99.90
48206;DHT22;33995;48.202;16.260;2023-12-20T05:45:51;7.60;99.90
48206;DHT22;33995;48.202;16.260;2023-12-20T05:48:18;7.60;99.90
48206;DHT22;33995;48.202;16.260;2023-12-20T05:50:46;7.60;99.90
48206;DHT22;33995;48.202;16.260;2023-12-20T05:53:13;7.70;99.90
48206;DHT22;33995;48.202;16.260;2023-12-20T05:55:41;7.70;99.90
48206;DHT22;33995;48.202;16.260;2023-12-20T05:58:08;7.80;99.90
48206;DHT22;33995;48.202;16.260;2023-12-20T06:00:35;7.80;99.90
48206;DHT22;33995;48.202;16.260;2023-12-20T06:03:04;7.80;99.90
48206;DHT22;33995;48.202;16.260;2023-12-20T06:05:32;7.90;99.90
48206;DHT22;33995;48.202;16.260;2023-12-20T06:07:59;7.90;99.90
48206;DHT22;33995;48.202;16.260;2023-12-20T06:10:29;7.90;99.90
48206;DHT22;33995;48.202;16.260;2023-12-20T06:12:56;7.90;99.90
48206;DHT22;33995;48.202;16.260;2023-12-20T06:15:25;7.90;99.90
48206;DHT22;33995;48.202;16.260;2023-12-20T06:17:52;7.90;99.90
48206;DHT22;33995;48.202;16.260;2023-12-20T06:20:19;8.00;99.90
48206;DHT22;33995;48.202;16.260;2023-12-20T06:22:46;7.90;99.90
48206;DHT22;33995;48.202;16.260;2023-12-20T06:25:13;7.90;99.90
48206;DHT22;33995;48.202;16.260;2023-12-20T06:27:41;7.90;99.90
48206;DHT22;33995;48.202;16.260;2023-12-20T06:30:08;8.00;99.90
48206;DHT22;33995;48.202;16.260;2023-12-20T06:32:36;8.00;99.90
48206;DHT22;33995;48.202;16.260;2023-12-20T06:35:05;8.00;99.90
48206;DHT22;33995;48.202;16.260;2023-12-20T06:37:32;8.00;99.90
48206;DHT22;33995;48.202;16.260;2023-12-20T06:39:59;8.00;99.90
48206;DHT22;33995;48.202;16.260;2023-12-20T06:42:27;8.00;99.90
48206;DHT22;33995;48.202;16.260;2023-12-20T06:44:57;8.00;99.90
48206;DHT22;33995;48.202;16.260;2023-12-20T06:47:24;8.00;99.90
48206;DHT22;33995;48.202;16.260;2023-12-20T06:49:51;8.00;99.90
48206;DHT22;33995;48.202;16.260;2023-12-20T06:52:18;7.90;99.90
48206;DHT22;33995;48.202;16.260;2023-12-20T06:54:46;8.00;99.90
48206;DHT22;33995;48.202;16.260;2023-12-20T06:57:13;8.00;99.90
48206;DHT22;33995;48.202;16.260;2023-12-20T06:59:43;8.10;99.90
48206;DHT22;33995;48.202;16.260;2023-12-20T07:02:11;8.10;99.90
48206;DHT22;33995;48.202;16.260;2023-12-20T07:04:41;8.10;99.90
48206;DHT22;33995;48.202;16.260;2023-12-20T07:07:08;8.20;99.90
48206;DHT22;33995;48.202;16.260;2023-12-20T07:09:37;8.20;99.90
48206;DHT22;33995;48.202;16.260;2023-12-20T07:12:05;8.10;99.90
48206;DHT22;33995;48.202;16.260;2023-12-20T07:14:32;8.10;99.90
48206;DHT22;33995;48.202;16.260;2023-12-20T07:16:59;8.20;99.90
48206;DHT22;33995;48.202;16.260;2023-12-20T07:19:26;8.10;99.90
48206;DHT22;33995;48.202;16.260;2023-12-20T07:21:54;8.10;99.90
48206;DHT22;33995;48.202;16.260;2023-12-20T07:24:21;8.00;99.90
48206;DHT22;33995;48.202;16.260;2023-12-20T07:26:48;8.10;99.90
48206;DHT22;33995;48.202;16.260;2023-12-20T07:29:15;8.00;99.90
48206;DHT22;33995;48.202;16.260;2023-12-20T07:31:42;8.00;99.90
48206;DHT22;33995;48.202;16.260;2023-12-20T07:34:09;7.90;99.90
48206;DHT22;33995;48.202;16.260;2023-12-20T07:36:37;7.80;99.90
48206;DHT22;33995;48.202;16.260;2023-12-20T07:39:04;7.80;99.90
48206;DHT22;33995;48.202;16.260;2023-12-20T07:41:32;7.80;99.90
48206;DHT22;33995;48.202;16.260;2023-12-20T07:43:59;7.80;99.90
48206;DHT22;33995;48.202;16.260;2023-12-20T07:46:27;7.70;99.90
48206;DHT22;33995;48.202;16.260;2023-12-20T07:48:54;7.60;99.90
48206;DHT22;33995;48.202;16.260;2023-12-20T07:51:22;7.50;99.90
48206;DHT22;33995;48.202;16.260;2023-12-20T07:53:49;7.50;99.90
48206;DHT22;33995;48.202;16.260;2023-12-20T07:56:18;7.40;99.90
48206;DHT22;33995;48.202;16.260;2023-12-20T07:58:45;7.40;99.90
48206;DHT22;33995;48.202;16.260;2023-12-20T08:01:20;7.30;99.90
48206;DHT22;33995;48.202;16.260;2023-12-20T08:03:49;7.40;99.90
48206;DHT22;33995;48.202;16.260;2023-12-20T08:06:17;7.40;99.90
48206;DHT22;33995;48.202;16.260;2023-12-20T08:08:44;7.40;99.90
48206;DHT22;33995;48.202;16.260;2023-12-20T08:11:21;7.40;99.90
48206;DHT22;33995;48.202;16.260;2023-12-20T08:13:49;7.40;99.90
48206;DHT22;33995;48.202;16.260;2023-12-20T08:16:18;7.40;99.90
48206;DHT22;33995;48.202;16.260;2023-12-20T08:18:47;7.40;99.90
48206;DHT22;33995;48.202;16.260;2023-12-20T08:21:14;7.40;99.90
48206;DHT22;33995;48.202;16.260;2023-12-20T08:23:43;7.40;99.90
48206;DHT22;33995;48.202;16.260;2023-12-20T08:26:11;7.50;99.90
48206;DHT22;33995;48.202;16.260;2023-12-20T08:28:38;7.40;99.90
48206;DHT22;33995;48.202;16.260;2023-12-20T08:31:06;7.40;99.90
48206;DHT22;33995;48.202;16.260;2023-12-20T08:33:34;7.40;99.90
48206;DHT22;33995;48.202;16.260;2023-12-20T08:36:01;7.50;99.90
48206;DHT22;33995;48.202;16.260;2023-12-20T08:38:32;7.50;99.90
48206;DHT22;33995;48.202;16.260;2023-12-20T08:40:58;7.50;99.90
48206;DHT22;33995;48.202;16.260;2023-12-20T08:43:25;7.50;99.90
48206;DHT22;33995;48.202;16.260;2023-12-20T08:45:52;7.50;99.90
48206;DHT22;33995;48.202;16.260;2023-12-20T08:48:20;7.40;99.90
48206;DHT22;33995;48.202;16.260;2023-12-20T08:50:49;7.40;99.90
48206;DHT22;33995;48.202;16.260;2023-12-20T08:53:17;7.50;99.90
48206;DHT22;33995;48.202;16.260;2023-12-20T08:55:45;7.40;99.90
48206;DHT22;33995;48.202;16.260;2023-12-20T08:58:13;7.40;99.90
48206;DHT22;33995;48.202;16.260;2023-12-20T09:00:40;7.30;99.90
48206;DHT22;33995;48.202;16.260;2023-12-20T09:03:07;7.30;99.90
48206;DHT22;33995;48.202;16.260;2023-12-20T09:05:35;7.30;99.90
48206;DHT22;33995;48.202;16.260;2023-12-20T09:08:02;7.20;99.90
48206;DHT22;33995;48.202;16.260;2023-12-20T09:10:29;7.20;99.90
48206;DHT22;33995;48.202;16.260;2023-12-20T09:12:56;7.20;99.90
48206;DHT22;33995;48.202;16.260;2023-12-20T09:15:25;7.30;99.90
48206;DHT22;33995;48.202;16.260;2023-12-20T09:17:53;7.30;99.90
48206;DHT22;33995;48.202;16.260;2023-12-20T09:20:20;7.20;99.90
48206;DHT22;33995;48.202;16.260;2023-12-20T09:22:48;7.10;99.90
48206;DHT22;33995;48.202;16.260;2023-12-20T09:25:15;7.10;99.90
48206;DHT22;33995;48.202;16.260;2023-12-20T09:27:44;7.20;99.90
48206;DHT22;33995;48.202;16.260;2023-12-20T09:30:12;7.20;99.90
48206;DHT22;33995;48.202;16.260;2023-12-20T09:32:51;7.20;99.90
48206;DHT22;33995;48.202;16.260;2023-12-20T09:35:18;7.20;99.90
48206;DHT22;33995;48.202;16.260;2023-12-20T09:37:45;7.20;99.90
48206;DHT22;33995;48.202;16.260;2023-12-20T09:40:14;7.20;99.90
48206;DHT22;33995;48.202;16.260;2023-12-20T09:42:58;7.20;99.90
48206;DHT22;33995;48.202;16.260;2023-12-20T09:45:26;7.20;99.90
48206;DHT22;33995;48.202;16.260;2023-12-20T09:47:53;7.00;99.90
48206;DHT22;33995;48.202;16.260;2023-12-20T09:50:22;7.00;99.90
48206;DHT22;33995;48.202;16.260;2023-12-20T09:52:53;6.70;99.90
48206;DHT22;33995;48.202;16.260;2023-12-20T09:55:25;6.80;99.90
48206;DHT22;33995;48.202;16.260;2023-12-20T09:57:52;6.70;99.90
48206;DHT22;33995;48.202;16.260;2023-12-20T10:00:19;6.60;99.90
48206;DHT22;33995;48.202;16.260;2023-12-20T10:03:00;6.50;99.90
48206;DHT22;33995;48.202;16.260;2023-12-20T10:05:32;6.30;99.90
48206;DHT22;33995;48.202;16.260;2023-12-20T10:08:00;6.40;99.90
48206;DHT22;33995;48.202;16.260;2023-12-20T10:10:29;6.40;99.90
48206;DHT22;33995;48.202;16.260;2023-12-20T10:13:11;6.50;99.90
48206;DHT22;33995;48.202;16.260;2023-12-20T10:15:39;6.30;99.90
48206;DHT22;33995;48.202;16.260;2023-12-20T10:18:08;6.30;99.90
48206;DHT22;33995;48.202;16.260;2023-12-20T10:20:36;6.20;99.90
48206;DHT22;33995;48.202;16.260;2023-12-20T10:23:03;6.20;99.90
48206;DHT22;33995;48.202;16.260;2023-12-20T10:25:30;6.30;99.90
48206;DHT22;33995;48.202;16.260;2023-12-20T10:28:10;6.30;99.90
48206;DHT22;33995;48.202;16.260;2023-12-20T10:30:40;6.30;99.90
48206;DHT22;33995;48.202;16.260;2023-12-20T10:33:08;6.40;99.90
48206;DHT22;33995;48.202;16.260;2023-12-20T10:35:40;6.40;99.90
48206;DHT22;33995;48.202;16.260;2023-12-20T10:38:12;6.40;99.90
48206;DHT22;33995;48.202;16.260;2023-12-20T10:40:41;6.40;99.90
48206;DHT22;33995;48.202;16.260;2023-12-20T10:43:10;6.50;99.90
48206;DHT22;33995;48.202;16.260;2023-12-20T10:45:38;6.40;99.90
48206;DHT22;33995;48.202;16.260;2023-12-20T10:48:05;6.40;99.90
48206;DHT22;33995;48.202;16.260;2023-12-20T10:50:33;6.50;99.90
48206;DHT22;33995;48.202;16.260;2023-12-20T10:53:03;6.90;99.90
48206;DHT22;33995;48.202;16.260;2023-12-20T10:55:30;6.70;99.90
48206;DHT22;33995;48.202;16.260;2023-12-20T10:58:01;6.60;99.90
48206;DHT22;33995;48.202;16.260;2023-12-20T11:00:31;6.70;99.90
48206;DHT22;33995;48.202;16.260;2023-12-20T11:03:01;6.70;99.90
48206;DHT22;33995;48.202;16.260;2023-12-20T11:08:38;6.80;99.90
48206;DHT22;33995;48.202;16.260;2023-12-20T11:11:20;6.80;99.90
48206;DHT22;33995;48.202;16.260;2023-12-20T11:14:03;6.70;99.90
48206;DHT22;33995;48.202;16.260;2023-12-20T11:16:32;6.70;99.90
48206;DHT22;33995;48.202;16.260;2023-12-20T11:19:14;6.80;99.90
48206;DHT22;33995;48.202;16.260;2023-12-20T11:21:41;6.80;99.90
48206;DHT22;33995;48.202;16.260;2023-12-20T11:24:09;6.80;99.90
48206;DHT22;33995;48.202;16.260;2023-12-20T11:26:36;6.80;99.90
48206;DHT22;33995;48.202;16.260;2023-12-20T11:29:39;6.80;99.90
48206;DHT22;33995;48.202;16.260;2023-12-20T11:35:16;6.90;99.90
48206;DHT22;33995;48.202;16.260;2023-12-20T11:37:43;6.90;99.90
48206;DHT22;33995;48.202;16.260;2023-12-20T11:40:16;6.90;99.90
48206;DHT22;33995;48.202;16.260;2023-12-20T11:42:45;7.00;99.90
48206;DHT22;33995;48.202;16.260;2023-12-20T11:45:19;7.10;99.90
48206;DHT22;33995;48.202;16.260;2023-12-20T11:47:49;7.10;99.90
48206;DHT22;33995;48.202;16.260;2023-12-20T11:50:18;7.10;99.90
48206;DHT22;33995;48.202;16.260;2023-12-20T11:52:46;7.10;99.90
48206;DHT22;33995;48.202;16.260;2023-12-20T11:55:14;7.10;99.90
48206;DHT22;33995;48.202;16.260;2023-12-20T11:57:42;7.20;99.90
48206;DHT22;33995;48.202;16.260;2023-12-20T12:00:10;7.30;99.90
48206;DHT22;33995;48.202;16.260;2023-12-20T12:02:37;7.40;99.90
48206;DHT22;33995;48.202;16.260;2023-12-20T12:05:05;7.50;99.90
48206;DHT22;33995;48.202;16.260;2023-12-20T12:07:34;7.50;99.90
48206;DHT22;33995;48.202;16.260;2023-12-20T12:10:01;7.80;99.90
48206;DHT22;33995;48.202;16.260;2023-12-20T12:12:30;7.80;99.90
48206;DHT22;33995;48.202;16.260;2023-12-20T12:14:59;7.60;99.90
48206;DHT22;33995;48.202;16.260;2023-12-20T12:17:26;7.70;99.90
48206;DHT22;33995;48.202;16.260;2023-12-20T12:20:05;7.70;99.90
48206;DHT22;33995;48.202;16.260;2023-12-20T12:22:32;7.80;99.90
48206;DHT22;33995;48.202;16.260;2023-12-20T12:25:09;7.70;99.90
48206;DHT22;33995;48.202;16.260;2023-12-20T12:27:41;7.70;99.90
48206;DHT22;33995;48.202;16.260;2023-12-20T12:30:12;7.70;99.90
48206;DHT22;33995;48.202;16.260;2023-12-20T12:32:40;7.60;99.90
48206;DHT22;33995;48.202;16.260;2023-12-20T12:35:08;7.70;99.90
48206;DHT22;33995;48.202;16.260;2023-12-20T12:37:40;7.60;99.90
48206;DHT22;33995;48.202;16.260;2023-12-20T12:40:12;7.60;99.90
48206;DHT22;33995;48.202;16.260;2023-12-20T12:42:41;7.50;99.90
48206;DHT22;33995;48.202;16.260;2023-12-20T12:45:10;7.50;99.90
48206;DHT22;33995;48.202;16.260;2023-12-20T12:47:41;7.50;99.90
48206;DHT22;33995;48.202;16.260;2023-12-20T12:50:08;7.50;99.90
48206;DHT22;33995;48.202;16.260;2023-12-20T12:52:35;7.40;99.90
48206;DHT22;33995;48.202;16.260;2023-12-20T12:55:03;7.40;99.90
48206;DHT22;33995;48.202;16.260;2023-12-20T12:57:32;7.40;99.90
48206;DHT22;33995;48.202;16.260;2023-12-20T13:00:00;7.40;99.90
48206;DHT22;33995;48.202;16.260;2023-12-20T13:02:27;7.50;99.90
48206;DHT22;33995;48.202;16.260;2023-12-20T13:04:54;7.40;99.90
48206;DHT22;33995;48.202;16.260;2023-12-20T13:07:21;7.30;99.90
48206;DHT22;33995;48.202;16.260;2023-12-20T13:09:49;7.40;99.90
48206;DHT22;33995;48.202;16.260;2023-12-20T13:12:16;7.30;99.90
48206;DHT22;33995;48.202;16.260;2023-12-20T13:14:42;7.40;99.90
48206;DHT22;33995;48.202;16.260;2023-12-20T13:17:09;7.40;99.90
48206;DHT22;33995;48.202;16.260;2023-12-20T13:19:37;7.40;99.90
48206;DHT22;33995;48.202;16.260;2023-12-20T13:22:04;7.40;99.90
48206;DHT22;33995;48.202;16.260;2023-12-20T13:24:32;7.30;99.90
48206;DHT22;33995;48.202;16.260;2023-12-20T13:26:59;7.30;99.90
48206;DHT22;33995;48.202;16.260;2023-12-20T13:29:26;7.30;99.90
48206;DHT22;33995;48.202;16.260;2023-12-20T13:31:56;7.40;99.90
48206;DHT22;33995;48.202;16.260;2023-12-20T13:34:24;7.40;99.90
48206;DHT22;33995;48.202;16.260;2023-12-20T13:36:51;7.30;99.90
48206;DHT22;33995;48.202;16.260;2023-12-20T13:39:19;7.30;99.90
48206;DHT22;33995;48.202;16.260;2023-12-20T13:41:46;7.20;99.90
48206;DHT22;33995;48.202;16.260;2023-12-20T13:44:13;7.20;99.90
48206;DHT22;33995;48.202;16.260;2023-12-20T13:46:41;7.30;99.90
48206;DHT22;33995;48.202;16.260;2023-12-20T13:49:08;7.20;99.90
48206;DHT22;33995;48.202;16.260;2023-12-20T13:51:35;7.30;99.90
48206;DHT22;33995;48.202;16.260;2023-12-20T13:54:02;7.30;99.90
48206;DHT22;33995;48.202;16.260;2023-12-20T13:56:29;7.40;99.90
48206;DHT22;33995;48.202;16.260;2023-12-20T13:58:58;7.40;99.90
48206;DHT22;33995;48.202;16.260;2023-12-20T14:01:26;7.30;99.90
48206;DHT22;33995;48.202;16.260;2023-12-20T14:03:53;7.30;99.90
48206;DHT22;33995;48.202;16.260;2023-12-20T14:06:20;7.20;99.90
48206;DHT22;33995;48.202;16.260;2023-12-20T14:08:47;7.20;99.90
48206;DHT22;33995;48.202;16.260;2023-12-20T14:11:15;7.20;99.90
48206;DHT22;33995;48.202;16.260;2023-12-20T14:13:42;7.20;99.90
48206;DHT22;33995;48.202;16.260;2023-12-20T14:16:10;7.20;99.90
48206;DHT22;33995;48.202;16.260;2023-12-20T14:18:37;7.10;99.90
48206;DHT22;33995;48.202;16.260;2023-12-20T14:21:06;7.10;99.90
48206;DHT22;33995;48.202;16.260;2023-12-20T14:23:33;7.00;99.90
48206;DHT22;33995;48.202;16.260;2023-12-20T14:26:00;6.90;99.90
48206;DHT22;33995;48.202;16.260;2023-12-20T14:28:29;7.00;99.90
48206;DHT22;33995;48.202;16.260;2023-12-20T14:30:56;6.90;99.90
48206;DHT22;33995;48.202;16.260;2023-12-20T14:33:23;6.90;99.90
48206;DHT22;33995;48.202;16.260;2023-12-20T14:35:50;6.90;99.90
48206;DHT22;33995;48.202;16.260;2023-12-20T14:38:17;6.80;99.90
48206;DHT22;33995;48.202;16.260;2023-12-20T14:40:45;7.00;99.90
48206;DHT22;33995;48.202;16.260;2023-12-20T14:43:12;7.00;99.90
48206;DHT22;33995;48.202;16.260;2023-12-20T14:45:39;7.00;99.90
48206;DHT22;33995;48.202;16.260;2023-12-20T14:48:06;6.90;99.90
48206;DHT22;33995;48.202;16.260;2023-12-20T14:50:33;7.00;99.90
48206;DHT22;33995;48.202;16.260;2023-12-20T14:53:00;6.90;99.90
48206;DHT22;33995;48.202;16.260;2023-12-20T14:55:27;6.90;99.90
48206;DHT22;33995;48.202;16.260;2023-12-20T14:57:56;6.90;99.90
48206;DHT22;33995;48.202;16.260;2023-12-20T15:00:23;6.80;99.90
48206;DHT22;33995;48.202;16.260;2023-12-20T15:02:50;6.80;99.90
48206;DHT22;33995;48.202;16.260;2023-12-20T15:05:18;6.80;99.90
48206;DHT22;33995;48.202;16.260;2023-12-20T15:07:45;6.80;99.90
48206;DHT22;33995;48.202;16.260;2023-12-20T15:10:15;6.80;99.90
48206;DHT22;33995;48.202;16.260;2023-12-20T15:12:44;6.80;99.90
48206;DHT22;33995;48.202;16.260;2023-12-20T15:15:11;6.90;99.90
48206;DHT22;33995;48.202;16.260;2023-12-20T15:17:38;6.90;99.90
48206;DHT22;33995;48.202;16.260;2023-12-20T15:20:06;6.80;99.90
48206;DHT22;33995;48.202;16.260;2023-12-20T15:22:33;6.90;99.90
48206;DHT22;33995;48.202;16.260;2023-12-20T15:25:00;6.90;99.90
48206;DHT22;33995;48.202;16.260;2023-12-20T15:27:28;7.00;99.90
48206;DHT22;33995;48.202;16.260;2023-12-20T15:29:55;7.00;99.90
48206;DHT22;33995;48.202;16.260;2023-12-20T15:32:22;6.90;99.90
48206;DHT22;33995;48.202;16.260;2023-12-20T15:34:49;6.90;99.90
48206;DHT22;33995;48.202;16.260;2023-12-20T15:37:18;6.90;99.90
48206;DHT22;33995;48.202;16.260;2023-12-20T15:39:45;6.90;99.90
48206;DHT22;33995;48.202;16.260;2023-12-20T15:42:12;6.90;99.90